createdAt,value
2019-03-21T00:03:12.922Z,13.54
2019-03-21T00:08:55.713Z,13.54
2019-03-21T00:12:03.769Z,13.59
2019-03-21T00:14:54.974Z,13.54
2019-03-21T00:20:53.103Z,13.40
2019-03-21T00:23:43.157Z,13.17
2019-03-21T00:26:52.710Z,13.04
2019-03-21T00:29:24.808Z,12.91
2019-03-21T00:31:57.067Z,12.82
2019-03-21T00:34:28.347Z,12.77
2019-03-21T00:37:18.422Z,12.66
2019-03-21T00:39:49.643Z,12.66
2019-03-21T00:42:20.441Z,12.66
2019-03-21T00:44:52.575Z,12.70
2019-03-21T00:50:14.818Z,12.54
2019-03-21T00:52:46.001Z,12.56
2019-03-21T00:55:36.189Z,12.53
2019-03-21T00:58:19.359Z,12.46
2019-03-21T01:01:08.512Z,12.32
2019-03-21T01:03:39.009Z,12.15
2019-03-21T01:06:12.475Z,12.22
2019-03-21T01:09:02.591Z,12.18
2019-03-21T01:11:33.888Z,12.18
2019-03-21T01:14:04.454Z,12.11
2019-03-21T01:16:35.151Z,12.08
2019-03-21T01:19:05.631Z,12.09
2019-03-21T01:21:35.938Z,12.12
2019-03-21T01:24:06.583Z,12.15
2019-03-21T01:26:36.907Z,12.24
2019-03-21T01:29:07.252Z,12.27
2019-03-21T01:32:15.223Z,12.32
2019-03-21T01:34:46.294Z,12.31
2019-03-21T01:37:35.490Z,12.33
2019-03-21T01:43:15.118Z,12.31
2019-03-21T01:45:45.490Z,12.26
2019-03-21T01:48:15.821Z,12.15
2019-03-21T01:51:05.368Z,12.11
2019-03-21T01:53:54.765Z,12.02
2019-03-21T01:56:43.942Z,11.95
2019-03-21T01:59:33.201Z,11.92
2019-03-21T02:10:18.069Z,11.88
2019-03-21T02:12:48.493Z,11.89
2019-03-21T02:15:37.646Z,11.88
2019-03-21T02:21:16.199Z,11.89
2019-03-21T02:23:46.612Z,11.89
2019-03-21T02:26:17.657Z,11.92
2019-03-21T02:29:06.848Z,11.97
2019-03-21T02:31:40.313Z,12.05
2019-03-21T02:34:10.727Z,12.12
2019-03-21T02:37:00.230Z,12.10
2019-03-21T02:39:30.808Z,12.06
2019-03-21T02:42:01.493Z,12.04
2019-03-21T02:44:32.526Z,12.06
2019-03-21T02:47:02.919Z,12.09
2019-03-21T02:52:43.361Z,12.07
2019-03-21T02:55:13.922Z,12.04
2019-03-21T02:57:46.349Z,11.96
2019-03-21T03:00:35.525Z,11.84
2019-03-21T03:03:06.233Z,11.86
2019-03-21T03:05:36.611Z,11.85
2019-03-21T03:11:11.037Z,11.85
2019-03-21T03:13:43.375Z,11.83
2019-03-21T03:16:32.633Z,11.81
2019-03-21T03:19:23.720Z,11.78
2019-03-21T03:24:43.650Z,11.70
2019-03-21T03:27:32.851Z,11.61
2019-03-21T03:30:03.334Z,11.60
2019-03-21T03:32:52.527Z,11.61
2019-03-21T03:35:23.029Z,11.61
2019-03-21T03:38:13.863Z,11.62
2019-03-21T03:40:46.811Z,11.62
2019-03-21T03:46:06.746Z,11.80
2019-03-21T03:48:37.071Z,12.06
2019-03-21T03:51:26.233Z,12.17
2019-03-21T03:53:56.674Z,12.13
2019-03-21T03:56:45.931Z,12.12
2019-03-21T04:02:17.319Z,12.08
2019-03-21T04:04:50.348Z,11.99
2019-03-21T04:10:54.989Z,12.08
2019-03-21T04:13:26.285Z,11.95
2019-03-21T04:15:56.593Z,11.83
2019-03-21T04:18:46.586Z,11.70
2019-03-21T04:24:00.308Z,11.82
2019-03-21T04:29:40.950Z,11.54
2019-03-21T04:35:02.027Z,11.25
2019-03-21T04:37:52.874Z,11.11
2019-03-21T04:40:24.212Z,11.13
2019-03-21T04:43:15.324Z,10.87
2019-03-21T04:45:45.904Z,10.65
2019-03-21T04:54:09.203Z,10.57
2019-03-21T04:56:40.360Z,10.61
2019-03-21T04:59:29.663Z,10.66
2019-03-21T05:02:00.095Z,10.64
2019-03-21T05:04:30.429Z,10.62
2019-03-21T05:07:00.860Z,10.53
2019-03-21T05:09:32.265Z,10.48
2019-03-21T05:12:02.685Z,10.41
2019-03-21T05:14:52.052Z,10.38
2019-03-21T05:17:23.394Z,10.39
2019-03-21T05:23:03.434Z,10.30
2019-03-21T05:25:35.608Z,10.43
2019-03-21T05:28:24.947Z,10.40
2019-03-21T05:31:01.571Z,10.44
2019-03-21T05:42:01.208Z,10.52
2019-03-21T05:45:06.915Z,10.41
2019-03-21T05:47:38.345Z,10.38
2019-03-21T05:53:13.654Z,10.63
2019-03-21T05:59:32.797Z,10.88
2019-03-21T06:02:05.485Z,11.81
2019-03-21T06:04:37.971Z,12.63
2019-03-21T06:07:21.300Z,13.16
2019-03-21T06:10:11.507Z,13.61
2019-03-21T06:13:00.607Z,14.06
2019-03-21T06:15:49.675Z,13.93
2019-03-21T06:18:43.025Z,13.83
2019-03-21T06:21:54.589Z,14.28
2019-03-21T06:25:02.655Z,14.76
2019-03-21T06:27:51.808Z,15.41
2019-03-21T06:30:41.090Z,15.79
2019-03-21T06:33:11.852Z,15.93
2019-03-21T06:35:42.220Z,16.10
2019-03-21T06:38:12.838Z,16.35
2019-03-21T06:43:32.506Z,16.92
2019-03-21T06:46:03.071Z,17.19
2019-03-21T06:48:52.355Z,17.34
2019-03-21T06:51:33.992Z,17.36
2019-03-21T06:54:04.407Z,17.53
2019-03-21T06:56:53.466Z,17.72
2019-03-21T06:59:25.904Z,18.02
2019-03-21T07:02:27.473Z,18.32
2019-03-21T07:04:47.296Z,18.49
2019-03-21T07:07:20.447Z,18.49
2019-03-21T07:13:01.973Z,19.03
2019-03-21T07:15:32.549Z,18.85
2019-03-21T07:18:21.765Z,18.47
2019-03-21T07:20:54.451Z,18.23
2019-03-21T07:26:55.323Z,17.71
2019-03-21T07:29:42.007Z,17.33
2019-03-21T07:32:40.928Z,17.47
2019-03-21T07:35:11.494Z,17.47
2019-03-21T07:37:41.965Z,17.29
2019-03-21T07:40:13.498Z,17.17
2019-03-21T07:43:03.957Z,17.11
2019-03-21T07:45:34.654Z,17.13
2019-03-21T07:48:05.521Z,17.07
2019-03-21T07:54:19.833Z,17.11
2019-03-21T07:57:09.021Z,16.80
2019-03-21T08:02:45.035Z,16.48
2019-03-21T08:05:40.473Z,16.49
2019-03-21T08:08:08.681Z,16.58
2019-03-21T08:10:59.164Z,16.62
2019-03-21T08:14:23.717Z,16.69
2019-03-21T08:26:19.914Z,16.86
2019-03-21T08:29:28.085Z,17.21
2019-03-21T08:31:58.733Z,17.41
2019-03-21T08:35:09.484Z,17.51
2019-03-21T08:38:11.332Z,17.63
2019-03-21T08:40:44.294Z,17.78
2019-03-21T08:43:15.611Z,17.82
2019-03-21T08:48:35.520Z,18.18
2019-03-21T08:51:43.998Z,18.48
2019-03-21T08:57:29.406Z,19.23
2019-03-21T09:00:34.414Z,19.15
2019-03-21T09:03:44.040Z,19.40
2019-03-21T09:17:21.801Z,19.97
2019-03-21T09:20:28.352Z,20.23
2019-03-21T09:23:21.804Z,20.56
2019-03-21T09:26:01.636Z,20.82
2019-03-21T09:31:47.540Z,21.50
2019-03-21T09:34:53.725Z,21.77
2019-03-21T09:37:43.580Z,21.98
2019-03-21T09:40:14.131Z,22.39
2019-03-21T09:42:50.804Z,22.85
2019-03-21T09:48:23.746Z,22.62
2019-03-21T09:54:09.276Z,23.60
2019-03-21T09:56:33.219Z,23.29
2019-03-21T09:59:43.712Z,23.07
2019-03-21T10:02:14.208Z,23.35
2019-03-21T10:05:04.483Z,23.74
2019-03-21T10:07:35.903Z,23.75
2019-03-21T10:10:25.206Z,23.67
2019-03-21T10:12:57.786Z,23.63
2019-03-21T10:15:28.462Z,23.60
2019-03-21T10:17:58.777Z,23.86
2019-03-21T10:29:37.218Z,24.66
2019-03-21T10:32:55.814Z,24.60
2019-03-21T10:35:45.048Z,24.58
2019-03-21T10:38:46.307Z,24.84
2019-03-21T10:41:16.733Z,24.99
2019-03-21T10:44:07.351Z,24.82
2019-03-21T10:46:37.789Z,24.78
2019-03-21T10:49:27.022Z,24.94
2019-03-21T10:52:16.322Z,25.37
2019-03-21T10:55:24.212Z,25.46
2019-03-21T10:57:54.619Z,25.57
2019-03-21T11:00:27.383Z,25.57
2019-03-21T11:06:08.421Z,25.52
2019-03-21T11:08:59.509Z,25.69
2019-03-21T11:14:40.367Z,25.32
2019-03-21T11:17:43.396Z,25.48
2019-03-21T11:23:36.864Z,25.79
2019-03-21T11:26:15.915Z,25.68
2019-03-21T11:29:05.157Z,26.10
2019-03-21T11:32:13.025Z,25.98
2019-03-21T11:34:46.169Z,26.00
2019-03-21T11:43:40.257Z,26.17
2019-03-21T11:49:41.700Z,26.12
2019-03-21T11:55:33.372Z,26.19
2019-03-21T11:58:24.379Z,26.10
2019-03-21T12:01:15.662Z,26.47
2019-03-21T12:03:46.190Z,26.12
2019-03-21T12:06:35.577Z,25.98
2019-03-21T12:09:08.128Z,26.12
2019-03-21T12:11:57.856Z,26.10
2019-03-21T12:14:47.001Z,26.00
2019-03-21T12:17:57.614Z,26.03
2019-03-21T12:20:46.905Z,26.14
2019-03-21T12:23:47.849Z,26.36
2019-03-21T12:32:03.541Z,26.73
2019-03-21T12:38:23.074Z,26.63
2019-03-21T12:44:42.073Z,26.72
2019-03-21T12:47:31.925Z,26.54
2019-03-21T12:50:03.528Z,26.60
2019-03-21T12:55:25.185Z,26.70
2019-03-21T12:58:14.376Z,26.94
2019-03-21T13:01:22.419Z,26.78
2019-03-21T13:04:00.027Z,27.03
2019-03-21T13:06:32.716Z,26.72
2019-03-21T13:09:09.200Z,26.72
2019-03-21T13:11:39.613Z,26.33
2019-03-21T13:14:10.968Z,26.46
2019-03-21T13:16:41.350Z,26.66
2019-03-21T13:19:20.890Z,26.73
2019-03-21T13:21:50.968Z,26.99
2019-03-21T13:24:21.337Z,27.11
2019-03-21T13:26:54.539Z,27.15
2019-03-21T13:29:25.213Z,26.98
2019-03-21T13:31:57.584Z,27.10
2019-03-21T13:34:28.957Z,27.42
2019-03-21T13:36:59.402Z,27.37
2019-03-21T13:39:29.787Z,26.92
2019-03-21T13:42:00.183Z,27.41
2019-03-21T13:44:30.973Z,26.66
2019-03-21T13:47:18.087Z,26.47
2019-03-21T13:49:48.794Z,26.47
2019-03-21T13:52:21.209Z,26.55
2019-03-21T13:54:55.368Z,26.48
2019-03-21T13:57:33.238Z,26.33
2019-03-21T14:00:03.660Z,26.48
2019-03-21T14:02:35.339Z,26.48
2019-03-21T14:05:10.504Z,26.32
2019-03-21T14:07:41.022Z,26.50
2019-03-21T14:10:11.372Z,26.62
2019-03-21T14:12:44.119Z,26.91
2019-03-21T14:15:18.767Z,26.93
2019-03-21T14:17:50.952Z,26.85
2019-03-21T14:20:24.359Z,26.81
2019-03-21T14:22:56.628Z,26.91
2019-03-21T14:25:26.980Z,27.04
2019-03-21T14:27:58.317Z,27.19
2019-03-21T14:30:34.537Z,27.15
2019-03-21T14:33:22.062Z,27.01
2019-03-21T14:35:44.882Z,27.05
2019-03-21T14:38:25.851Z,26.87
2019-03-21T14:40:48.625Z,26.73
2019-03-21T14:43:20.267Z,26.42
2019-03-21T14:45:50.672Z,26.30
2019-03-21T14:48:21.957Z,26.35
2019-03-21T14:50:53.200Z,26.65
2019-03-21T14:53:29.216Z,26.52
2019-03-21T14:56:00.841Z,26.56
2019-03-21T14:58:32.987Z,26.39
2019-03-21T15:01:05.467Z,26.33
2019-03-21T15:03:40.421Z,26.45
2019-03-21T15:06:13.763Z,26.58
2019-03-21T15:08:46.102Z,27.02
2019-03-21T15:11:17.737Z,27.21
2019-03-21T15:13:49.349Z,27.35
2019-03-21T15:16:22.207Z,27.35
2019-03-21T15:18:52.607Z,27.48
2019-03-21T15:21:30.847Z,27.67
2019-03-21T15:24:03.237Z,28.00
2019-03-21T15:26:33.511Z,27.92
2019-03-21T15:29:08.842Z,27.84
2019-03-21T15:31:40.071Z,27.68
2019-03-21T15:34:17.872Z,27.99
2019-03-21T15:36:49.469Z,27.96
2019-03-21T15:39:20.779Z,27.96
2019-03-21T15:41:51.600Z,28.03
2019-03-21T15:44:25.403Z,28.14
2019-03-21T15:46:58.567Z,28.34
2019-03-21T15:49:30.520Z,28.31
2019-03-21T15:52:02.714Z,27.84
2019-03-21T15:54:39.572Z,27.71
2019-03-21T15:57:11.483Z,27.90
2019-03-21T15:59:43.606Z,27.93
2019-03-21T16:02:13.954Z,28.25
2019-03-21T16:04:48.563Z,28.30
2019-03-21T16:07:20.740Z,28.01
2019-03-21T16:09:58.677Z,27.78
2019-03-21T16:12:32.378Z,27.78
2019-03-21T16:15:15.398Z,27.53
2019-03-21T16:18:02.328Z,27.50
2019-03-21T16:20:37.212Z,27.51
2019-03-21T16:23:12.153Z,27.78
2019-03-21T16:25:45.014Z,27.88
2019-03-21T16:28:20.635Z,27.94
2019-03-21T16:31:00.248Z,28.10
2019-03-21T16:33:33.127Z,28.10
2019-03-21T16:36:09.602Z,27.87
2019-03-21T16:38:40.752Z,27.87
2019-03-21T16:41:14.670Z,27.58
2019-03-21T16:43:51.697Z,27.38
2019-03-21T16:46:33.190Z,27.34
2019-03-21T16:49:13.485Z,27.14
2019-03-21T16:51:51.463Z,27.15
2019-03-21T16:54:26.755Z,27.08
2019-03-21T16:57:00.790Z,26.79
2019-03-21T16:59:36.510Z,26.34
2019-03-21T17:02:13.865Z,25.84
2019-03-21T17:04:51.365Z,25.47
2019-03-21T17:07:27.071Z,25.21
2019-03-21T17:09:59.721Z,25.02
2019-03-21T17:12:32.304Z,24.75
2019-03-21T17:15:02.757Z,24.52
2019-03-21T17:17:34.047Z,24.33
2019-03-21T17:20:11.493Z,24.13
2019-03-21T17:22:44.255Z,24.05
2019-03-21T17:25:20.674Z,23.95
2019-03-21T17:27:56.447Z,23.81
2019-03-21T17:30:31.644Z,23.63
2019-03-21T17:33:06.027Z,23.36
2019-03-21T17:35:37.757Z,23.36
2019-03-21T17:38:08.087Z,23.25
2019-03-21T17:40:41.038Z,23.14
2019-03-21T17:43:13.170Z,23.14
2019-03-21T17:45:43.555Z,23.09
2019-03-21T17:48:16.389Z,22.84
2019-03-21T17:50:49.529Z,22.75
2019-03-21T17:53:20.948Z,22.87
2019-03-21T17:55:52.239Z,22.79
2019-03-21T17:58:22.547Z,22.60
2019-03-21T18:00:59.745Z,22.61
2019-03-21T18:03:34.332Z,22.57
2019-03-21T18:06:08.229Z,22.63
2019-03-21T18:08:41.273Z,22.37
2019-03-21T18:11:18.942Z,22.28
2019-03-21T18:13:57.032Z,22.08
2019-03-21T18:16:33.137Z,21.94
2019-03-21T18:19:04.292Z,21.63
2019-03-21T18:21:37.077Z,21.63
2019-03-21T18:24:14.213Z,21.54
2019-03-21T18:26:54.711Z,21.53
2019-03-21T18:29:26.316Z,21.52
2019-03-21T18:31:59.525Z,21.47
2019-03-21T18:34:32.969Z,21.47
2019-03-21T18:37:04.721Z,21.39
2019-03-21T18:39:39.456Z,21.28
2019-03-21T18:42:09.866Z,21.19
2019-03-21T18:44:40.203Z,21.19
2019-03-21T18:47:11.460Z,20.99
2019-03-21T18:49:42.151Z,20.99
2019-03-21T18:52:13.631Z,20.97
2019-03-21T18:54:44.088Z,20.88
2019-03-21T18:57:14.433Z,20.99
2019-03-21T18:59:44.886Z,20.85
2019-03-21T19:02:17.361Z,20.89
2019-03-21T19:05:01.034Z,20.85
2019-03-21T19:07:34.435Z,20.90
2019-03-21T19:10:07.944Z,20.96
2019-03-21T19:12:45.818Z,20.91
2019-03-21T19:15:22.744Z,20.83
2019-03-21T19:17:53.242Z,20.85
2019-03-21T19:20:24.641Z,20.85
2019-03-21T19:22:55.323Z,20.71
2019-03-21T19:25:30.409Z,20.71
2019-03-21T19:28:01.085Z,20.68
2019-03-21T19:30:32.699Z,20.62
2019-03-21T19:33:06.719Z,20.69
2019-03-21T19:35:40.166Z,20.78
2019-03-21T19:38:11.674Z,20.61
2019-03-21T19:40:47.343Z,20.61
2019-03-21T19:43:19.053Z,20.71
2019-03-21T19:45:49.436Z,20.67
2019-03-21T19:48:22.412Z,20.69
2019-03-21T19:50:54.033Z,20.63
2019-03-21T19:53:28.876Z,20.61
2019-03-21T19:56:08.752Z,20.61
2019-03-21T19:58:41.159Z,20.55
2019-03-21T20:01:19.867Z,20.43
2019-03-21T20:03:52.763Z,20.50
2019-03-21T20:06:24.869Z,20.34
2019-03-21T20:09:08.631Z,20.31
2019-03-21T20:11:45.903Z,20.23
2019-03-21T20:14:17.640Z,20.23
2019-03-21T20:16:49.728Z,20.24
2019-03-21T20:19:21.059Z,20.16
2019-03-21T20:21:52.479Z,20.09
2019-03-21T20:24:22.827Z,20.13
2019-03-21T20:26:56.626Z,20.15
2019-03-21T20:29:31.779Z,20.16
2019-03-21T20:32:04.770Z,20.23
2019-03-21T20:34:41.223Z,20.23
2019-03-21T20:37:13.903Z,20.25
2019-03-21T20:39:47.189Z,20.26
2019-03-21T20:42:19.455Z,20.24
2019-03-21T20:44:52.109Z,20.28
2019-03-21T20:47:25.320Z,20.37
2019-03-21T20:50:00.464Z,20.37
2019-03-21T20:52:32.094Z,20.36
2019-03-21T20:55:03.409Z,20.10
2019-03-21T20:57:34.633Z,20.10
2019-03-21T21:00:07.099Z,19.80
2019-03-21T21:02:43.693Z,19.70
2019-03-21T21:05:15.437Z,19.59
2019-03-21T21:07:49.091Z,19.47
2019-03-21T21:10:34.282Z,19.35
2019-03-21T21:13:09.698Z,19.35
2019-03-21T21:15:40.073Z,19.13
2019-03-21T21:18:12.357Z,19.03
2019-03-21T21:20:44.763Z,19.00
2019-03-21T21:23:17.755Z,18.92
2019-03-21T21:25:50.959Z,18.86
2019-03-21T21:28:21.688Z,18.84
2019-03-21T21:31:00.005Z,18.74
2019-03-21T21:33:31.735Z,18.79
2019-03-21T21:36:04.260Z,18.82
2019-03-21T21:38:40.414Z,18.69
2019-03-21T21:41:17.861Z,18.71
2019-03-21T21:43:54.315Z,18.71
2019-03-21T21:46:25.571Z,18.76
2019-03-21T21:48:59.184Z,18.75
2019-03-21T21:51:42.690Z,18.82
2019-03-21T21:54:14.021Z,18.77
2019-03-21T21:56:44.381Z,18.71
2019-03-21T21:59:17.292Z,18.67
2019-03-21T22:01:50.909Z,18.60
2019-03-21T22:04:24.928Z,18.41
2019-03-21T22:06:55.658Z,18.39
2019-03-21T22:09:26.087Z,18.38
2019-03-21T22:11:58.489Z,18.39
2019-03-21T22:14:33.305Z,18.34
2019-03-21T22:17:03.756Z,18.28
2019-03-21T22:19:34.091Z,18.23
2019-03-21T22:22:04.468Z,18.11
2019-03-21T22:24:37.683Z,18.05
2019-03-21T22:27:11.347Z,17.88
2019-03-21T22:29:41.725Z,17.81
2019-03-21T22:32:12.159Z,17.71
2019-03-21T22:34:42.448Z,17.68
2019-03-21T22:37:12.962Z,17.59
2019-03-21T22:39:46.743Z,17.54
2019-03-21T22:42:17.207Z,17.47
2019-03-21T22:44:50.667Z,17.37
2019-03-21T22:47:23.979Z,17.33
2019-03-21T22:50:21.121Z,17.26
2019-03-21T22:52:57.649Z,17.14
2019-03-21T22:55:47.584Z,17.16
2019-03-21T22:58:50.877Z,17.11
2019-03-21T23:01:21.799Z,17.12
2019-03-21T23:03:52.154Z,17.06
2019-03-21T23:06:26.992Z,17.01
2019-03-21T23:08:59.899Z,16.92
2019-03-21T23:11:35.442Z,16.81
2019-03-21T23:14:13.613Z,16.75
2019-03-21T23:16:44.477Z,16.73
2019-03-21T23:19:16.969Z,16.67
2019-03-21T23:21:54.631Z,16.64
2019-03-21T23:24:26.093Z,16.61
2019-03-21T23:27:08.396Z,16.48
2019-03-21T23:29:41.037Z,16.47
2019-03-21T23:32:37.001Z,16.31
2019-03-21T23:35:42.786Z,16.28
2019-03-21T23:38:20.876Z,16.27
2019-03-21T23:40:56.442Z,16.18
2019-03-21T23:43:30.818Z,16.08
2019-03-21T23:46:07.072Z,16.00
2019-03-21T23:48:39.834Z,15.94
2019-03-21T23:51:17.780Z,15.83
2019-03-21T23:54:02.350Z,15.71
2019-03-21T23:56:40.410Z,15.66
2019-03-21T23:59:12.021Z,15.64
